createdAt,value
2024-03-12T00:03:18.053Z,100164.63
2024-03-12T00:07:23.283Z,100181.53
2024-03-12T00:11:26.016Z,100177.88
2024-03-12T00:15:37.496Z,100187.06
2024-03-12T00:19:41.743Z,100185.94
2024-03-12T00:23:43.673Z,100192.03
2024-03-12T00:27:45.510Z,100196.81
2024-03-12T00:31:46.960Z,100197.78
2024-03-12T00:35:48.596Z,100198.31
2024-03-12T00:39:51.167Z,100201.16
2024-03-12T00:43:53.268Z,100206.47
2024-03-12T00:47:55.271Z,100206.19
2024-03-12T00:51:57.866Z,100206.09
2024-03-12T00:55:59.457Z,100208.78
2024-03-12T01:00:02.555Z,100217.97
2024-03-12T01:04:04.520Z,100230.84
2024-03-12T01:08:10.172Z,100228.00
2024-03-12T01:12:11.735Z,100232.91
2024-03-12T01:16:13.277Z,100235.25
2024-03-12T01:20:17.803Z,100242.75
2024-03-12T01:24:20.119Z,100246.66
2024-03-12T01:28:23.702Z,100248.38
2024-03-12T01:32:26.688Z,100251.31
2024-03-12T01:36:35.718Z,100258.63
2024-03-12T01:40:37.512Z,100255.09
2024-03-12T01:44:40.661Z,100256.25
2024-03-12T01:48:42.102Z,100255.66
2024-03-12T01:52:44.842Z,100263.03
2024-03-12T01:56:48.927Z,100265.69
2024-03-12T02:00:51.148Z,100266.41
2024-03-12T02:04:52.676Z,100268.78
2024-03-12T02:08:54.804Z,100264.00
2024-03-12T02:12:59.444Z,100280.75
2024-03-12T02:17:00.864Z,100273.16
2024-03-12T02:21:04.902Z,100274.50
2024-03-12T02:25:08.162Z,100278.06
2024-03-12T02:29:11.484Z,100283.16
2024-03-12T02:33:15.268Z,100283.69
2024-03-12T02:37:16.968Z,100287.09
2024-03-12T02:41:22.792Z,100291.44
2024-03-12T02:45:24.895Z,100302.59
2024-03-12T02:49:26.925Z,100314.69
2024-03-12T02:53:28.405Z,100309.84
2024-03-12T02:57:29.890Z,100306.63
2024-03-12T03:01:31.491Z,100312.84
2024-03-12T03:05:33.509Z,100317.00
2024-03-12T03:09:35.671Z,100316.41
2024-03-12T03:13:37.328Z,100319.09
2024-03-12T03:17:39.997Z,100317.81
2024-03-12T03:21:41.545Z,100316.25
2024-03-12T03:25:43.396Z,100328.47
2024-03-12T03:29:44.794Z,100321.50
2024-03-12T03:33:49.192Z,100329.22
2024-03-12T03:37:50.688Z,100333.75
2024-03-12T03:41:53.178Z,100332.41
2024-03-12T03:45:54.632Z,100340.63
2024-03-12T03:49:56.281Z,100348.53
2024-03-12T03:54:02.014Z,100339.81
2024-03-12T03:58:03.580Z,100353.06
2024-03-12T04:02:06.661Z,100349.81
2024-03-12T04:06:08.235Z,100355.75
2024-03-12T04:10:12.860Z,100370.75
2024-03-12T04:14:14.418Z,100374.78
2024-03-12T04:18:20.055Z,100389.16
2024-03-12T04:22:21.674Z,100394.06
2024-03-12T04:26:23.438Z,100393.75
2024-03-12T04:30:25.316Z,100400.88
2024-03-12T04:34:26.790Z,100396.88
2024-03-12T04:38:31.260Z,100410.53
2024-03-12T04:42:38.789Z,100405.00
2024-03-12T04:46:52.755Z,100408.34
2024-03-12T04:50:54.632Z,100412.44
2024-03-12T04:54:58.510Z,100418.00
2024-03-12T04:59:00.032Z,100419.31
2024-03-12T05:03:01.545Z,100428.69
2024-03-12T05:07:03.068Z,100441.88
2024-03-12T05:11:04.821Z,100445.56
2024-03-12T05:15:07.257Z,100443.94
2024-03-12T05:19:11.989Z,100457.09
2024-03-12T05:23:14.519Z,100457.69
2024-03-12T05:27:26.918Z,100462.50
2024-03-12T05:31:32.775Z,100468.78
2024-03-12T05:35:34.865Z,100471.72
2024-03-12T05:39:49.312Z,100477.75
2024-03-12T05:44:09.435Z,100480.34
2024-03-12T05:48:11.456Z,100485.84
2024-03-12T05:52:13.128Z,100491.09
2024-03-12T05:56:17.009Z,100497.97
2024-03-12T06:00:20.607Z,100503.66
2024-03-12T06:04:22.087Z,100506.22
2024-03-12T06:08:25.719Z,100514.63
2024-03-12T06:12:27.387Z,100523.00
2024-03-12T06:16:29.152Z,100523.41
2024-03-12T06:20:31.889Z,100534.06
2024-03-12T06:24:33.482Z,100545.94
2024-03-12T06:28:35.571Z,100540.47
2024-03-12T06:32:37.016Z,100545.88
2024-03-12T06:36:40.105Z,100546.19
2024-03-12T06:40:41.640Z,100557.41
2024-03-12T06:44:43.892Z,100560.34
2024-03-12T06:48:47.148Z,100567.06
2024-03-12T06:52:52.009Z,100570.16
2024-03-12T06:56:54.903Z,100584.81
2024-03-12T07:00:57.112Z,100591.91
2024-03-12T07:04:58.959Z,100597.28
2024-03-12T07:09:04.477Z,100598.47
2024-03-12T07:13:08.531Z,100610.69
2024-03-12T07:17:15.407Z,100604.09
2024-03-12T07:21:17.386Z,100609.25
2024-03-12T07:25:18.912Z,100620.63
2024-03-12T07:29:20.404Z,100618.81
2024-03-12T07:33:22.090Z,100627.69
2024-03-12T07:37:23.544Z,100627.69
2024-03-12T07:41:25.028Z,100636.59
2024-03-12T07:45:27.832Z,100639.03
2024-03-12T07:49:29.696Z,100647.09
2024-03-12T07:53:31.887Z,100640.72
2024-03-12T07:57:33.690Z,100643.59
2024-03-12T08:01:35.664Z,100644.78
2024-03-12T08:05:37.198Z,100642.09
2024-03-12T08:09:39.568Z,100640.78
2024-03-12T08:13:41.169Z,100652.94
2024-03-12T08:17:44.622Z,100658.28
2024-03-12T08:21:47.985Z,100659.28
2024-03-12T08:25:56.209Z,100658.00
2024-03-12T08:30:01.752Z,100661.59
2024-03-12T08:34:04.306Z,100660.28
2024-03-12T08:38:05.832Z,100678.19
2024-03-12T08:42:10.546Z,100671.38
2024-03-12T08:46:12.358Z,100677.91
2024-03-12T08:50:13.851Z,100691.66
2024-03-12T08:54:15.572Z,100696.19
2024-03-12T08:58:18.419Z,100704.19
2024-03-12T09:02:19.929Z,100707.44
2024-03-12T09:06:21.684Z,100704.25
2024-03-12T09:10:23.737Z,100710.47
2024-03-12T09:14:25.833Z,100709.84
2024-03-12T09:18:27.800Z,100715.16
2024-03-12T09:22:30.008Z,100715.22
2024-03-12T09:26:33.232Z,100708.94
2024-03-12T09:30:35.441Z,100709.22
2024-03-12T09:34:40.348Z,100713.16
2024-03-12T09:38:42.473Z,100711.66
2024-03-12T09:42:48.254Z,100719.22
2024-03-12T09:46:50.356Z,100722.41
2024-03-12T09:50:51.992Z,100726.16
2024-03-12T09:54:53.608Z,100723.84
2024-03-12T09:58:55.840Z,100727.38
2024-03-12T10:03:00.960Z,100725.38
2024-03-12T10:07:03.019Z,100730.59
2024-03-12T10:11:09.969Z,100728.56
2024-03-12T10:15:13.345Z,100726.59
2024-03-12T10:19:19.585Z,100736.94
2024-03-12T10:23:23.515Z,100730.25
2024-03-12T10:27:25.041Z,100735.00
2024-03-12T10:31:30.190Z,100731.03
2024-03-12T10:35:38.504Z,100733.00
2024-03-12T10:39:45.347Z,100733.25
2024-03-12T10:43:56.368Z,100734.25
2024-03-12T10:47:59.552Z,100736.16
2024-03-12T10:52:02.730Z,100746.91
2024-03-12T10:56:11.561Z,100747.94
2024-03-12T11:00:21.768Z,100748.22
2024-03-12T11:04:24.109Z,100753.03
2024-03-12T11:08:27.866Z,100756.16
2024-03-12T11:12:29.288Z,100754.94
2024-03-12T11:16:35.683Z,100757.97
2024-03-12T11:20:41.298Z,100759.97
2024-03-12T11:24:48.697Z,100764.75
2024-03-12T11:28:51.380Z,100760.72
2024-03-12T11:32:53.971Z,100753.88
2024-03-12T11:37:13.839Z,100756.72
2024-03-12T11:41:17.564Z,100755.59
2024-03-12T11:45:48.329Z,100760.44
2024-03-12T11:49:51.204Z,100758.03
2024-03-12T11:53:53.645Z,100749.31
2024-03-12T11:57:56.111Z,100753.31
2024-03-12T12:01:59.518Z,100753.75
2024-03-12T12:06:02.801Z,100753.78
2024-03-12T12:10:04.742Z,100753.06
2024-03-12T12:14:07.208Z,100753.38
2024-03-12T12:18:11.961Z,100747.94
2024-03-12T12:22:16.306Z,100741.00
2024-03-12T12:26:20.421Z,100737.22
2024-03-12T12:30:23.223Z,100737.47
2024-03-12T12:34:29.374Z,100726.75
2024-03-12T12:38:31.738Z,100722.91
2024-03-12T12:42:34.717Z,100718.91
2024-03-12T12:46:40.857Z,100718.13
2024-03-12T12:50:42.757Z,100724.34
2024-03-12T12:54:46.757Z,100717.91
2024-03-12T12:58:48.807Z,100722.28
2024-03-12T13:02:50.227Z,100719.09
2024-03-12T13:06:56.133Z,100719.19
2024-03-12T13:11:09.999Z,100717.00
2024-03-12T13:15:25.546Z,100713.34
2024-03-12T13:19:27.619Z,100715.56
2024-03-12T13:23:32.031Z,100707.31
2024-03-12T13:27:33.591Z,100718.28
2024-03-12T13:31:35.404Z,100712.94
2024-03-12T13:35:36.879Z,100714.06
2024-03-12T13:39:38.821Z,100718.41
2024-03-12T13:43:41.650Z,100718.63
2024-03-12T13:47:43.069Z,100720.75
2024-03-12T13:51:46.383Z,100725.78
2024-03-12T13:55:47.863Z,100727.34
2024-03-12T13:59:49.783Z,100723.38
2024-03-12T14:03:52.733Z,100719.06
2024-03-12T14:07:54.539Z,100726.53
2024-03-12T14:11:56.133Z,100721.81
2024-03-12T14:15:57.798Z,100727.41
2024-03-12T14:19:59.237Z,100727.72
2024-03-12T14:24:02.930Z,100725.56
2024-03-12T14:28:06.663Z,100720.69
2024-03-12T14:32:08.830Z,100720.63
2024-03-12T14:36:11.159Z,100712.81
2024-03-12T14:40:13.149Z,100711.50
2024-03-12T14:44:15.160Z,100713.09
2024-03-12T14:48:17.213Z,100711.09
2024-03-12T14:52:18.601Z,100717.75
2024-03-12T14:56:20.086Z,100697.72
2024-03-12T15:00:21.879Z,100696.31
2024-03-12T15:04:23.398Z,100698.28
2024-03-12T15:08:25.034Z,100688.72
2024-03-12T15:12:28.802Z,100680.44
2024-03-12T15:16:31.821Z,100679.09
2024-03-12T15:20:33.348Z,100673.59
2024-03-12T15:24:36.151Z,100679.22
2024-03-12T15:28:38.935Z,100671.31
2024-03-12T15:32:40.872Z,100672.25
2024-03-12T15:36:43.123Z,100673.38
2024-03-12T15:40:45.272Z,100675.00
2024-03-12T15:44:46.654Z,100669.16
2024-03-12T15:48:48.400Z,100665.75
2024-03-12T15:52:49.900Z,100677.03
2024-03-12T15:56:52.677Z,100666.16
2024-03-12T16:00:54.286Z,100665.59
2024-03-12T16:04:55.750Z,100662.75
2024-03-12T16:08:59.479Z,100661.38
2024-03-12T16:13:02.812Z,100665.25
2024-03-12T16:17:07.219Z,100664.66
2024-03-12T16:21:08.738Z,100658.88
2024-03-12T16:25:10.737Z,100661.75
2024-03-12T16:29:12.273Z,100661.88
2024-03-12T16:33:13.972Z,100670.84
2024-03-12T16:37:15.621Z,100664.78
2024-03-12T16:41:17.257Z,100667.88
2024-03-12T16:45:18.747Z,100665.69
2024-03-12T16:49:20.315Z,100660.06
2024-03-12T16:53:22.041Z,100664.34
2024-03-12T16:57:23.936Z,100664.72
2024-03-12T17:01:25.769Z,100660.91
2024-03-12T17:05:29.059Z,100658.28
2024-03-12T17:09:30.762Z,100664.50
2024-03-12T17:13:32.499Z,100666.47
2024-03-12T17:17:34.508Z,100670.94
2024-03-12T17:21:39.982Z,100662.41
2024-03-12T17:25:41.786Z,100672.34
2024-03-12T17:29:44.439Z,100671.31
2024-03-12T17:33:48.702Z,100672.81
2024-03-12T17:37:55.669Z,100682.19
2024-03-12T17:41:57.396Z,100687.22
2024-03-12T17:45:59.242Z,100691.25
2024-03-12T17:50:03.671Z,100690.25
2024-03-12T17:54:05.602Z,100694.03
2024-03-12T17:58:07.959Z,100692.97
2024-03-12T18:02:15.427Z,100696.41
2024-03-12T18:06:20.183Z,100694.84
2024-03-12T18:10:26.446Z,100691.88
2024-03-12T18:14:30.257Z,100694.03
2024-03-12T18:18:31.716Z,100697.69
2024-03-12T18:22:33.295Z,100697.94
2024-03-12T18:26:34.674Z,100686.19
2024-03-12T18:30:37.510Z,100685.41
2024-03-12T18:34:40.027Z,100680.16
2024-03-12T18:38:41.479Z,100683.72
2024-03-12T18:42:43.593Z,100680.28
2024-03-12T18:46:45.046Z,100680.16
2024-03-12T18:50:46.693Z,100680.47
2024-03-12T18:54:48.609Z,100682.03
2024-03-12T18:58:50.431Z,100682.00
2024-03-12T19:02:53.701Z,100678.06
2024-03-12T19:06:55.609Z,100675.66
2024-03-12T19:10:57.352Z,100666.38
2024-03-12T19:14:59.397Z,100663.47
2024-03-12T19:19:04.158Z,100659.88
2024-03-12T19:23:06.178Z,100652.69
2024-03-12T19:27:14.416Z,100669.31
2024-03-12T19:31:22.810Z,100663.25
2024-03-12T19:35:24.644Z,100654.63
2024-03-12T19:39:27.267Z,100651.66
2024-03-12T19:43:29.646Z,100660.16
2024-03-12T19:47:32.200Z,100657.19
2024-03-12T19:51:34.465Z,100654.53
2024-03-12T19:55:37.772Z,100656.00
2024-03-12T19:59:39.854Z,100648.16
2024-03-12T20:03:41.369Z,100635.75
2024-03-12T20:07:46.830Z,100635.78
2024-03-12T20:11:48.288Z,100631.16
2024-03-12T20:15:50.119Z,100635.47
2024-03-12T20:19:51.615Z,100631.97
2024-03-12T20:23:53.061Z,100633.25
2024-03-12T20:27:55.373Z,100629.69
2024-03-12T20:31:58.586Z,100628.94
2024-03-12T20:36:02.373Z,100629.28
2024-03-12T20:40:10.599Z,100624.72
2024-03-12T20:44:12.695Z,100626.63
2024-03-12T20:48:14.720Z,100631.06
2024-03-12T20:52:16.547Z,100632.66
2024-03-12T20:56:18.043Z,100634.59
2024-03-12T21:00:29.905Z,100634.22
2024-03-12T21:04:35.122Z,100625.81
2024-03-12T21:08:38.156Z,100632.34
2024-03-12T21:12:40.464Z,100619.00
2024-03-12T21:16:42.608Z,100623.75
2024-03-12T21:20:44.168Z,100617.09
2024-03-12T21:24:45.543Z,100607.63
2024-03-12T21:28:47.988Z,100609.25
2024-03-12T21:32:49.582Z,100609.06
2024-03-12T21:36:51.468Z,100604.09
2024-03-12T21:40:53.019Z,100596.47
2024-03-12T21:44:54.431Z,100605.66
2024-03-12T21:48:56.506Z,100615.03
2024-03-12T21:52:59.539Z,100613.78
2024-03-12T21:57:02.295Z,100602.66
2024-03-12T22:01:04.272Z,100599.28
2024-03-12T22:05:08.923Z,100594.97
2024-03-12T22:09:10.834Z,100592.69
2024-03-12T22:13:17.093Z,100590.00
2024-03-12T22:17:22.526Z,100591.63
2024-03-12T22:21:26.109Z,100588.00
2024-03-12T22:25:27.936Z,100591.28
2024-03-12T22:29:30.856Z,100593.38
2024-03-12T22:33:34.355Z,100588.78
2024-03-12T22:37:39.194Z,100588.41
2024-03-12T22:41:48.276Z,100585.69
2024-03-12T22:45:50.116Z,100578.16
2024-03-12T22:49:54.427Z,100574.66
2024-03-12T22:53:56.861Z,100570.94
2024-03-12T22:58:06.282Z,100577.97
2024-03-12T23:02:10.427Z,100574.88
2024-03-12T23:06:12.249Z,100569.56
2024-03-12T23:10:13.939Z,100574.28
2024-03-12T23:14:16.661Z,100569.72
2024-03-12T23:18:18.083Z,100567.31
2024-03-12T23:22:19.718Z,100549.94
2024-03-12T23:26:21.199Z,100555.78
2024-03-12T23:30:23.169Z,100565.97
2024-03-12T23:34:24.651Z,100561.69
2024-03-12T23:38:26.093Z,100565.00
2024-03-12T23:42:27.531Z,100568.09
2024-03-12T23:46:29.809Z,100569.75
2024-03-12T23:50:31.441Z,100562.13
2024-03-12T23:54:32.825Z,100557.38
2024-03-12T23:58:36.880Z,100561.41
